createdAt,value
2019-05-10T00:00:19.200Z,7.10
2019-05-10T00:02:53.282Z,7.10
2019-05-10T00:05:27.614Z,7.10
2019-05-10T00:08:01.312Z,7.10
2019-05-10T00:10:29.284Z,7.10
2019-05-10T00:13:08.068Z,7.10
2019-05-10T00:15:37.565Z,7.10
2019-05-10T00:18:05.969Z,7.10
2019-05-10T00:20:34.414Z,7.10
2019-05-10T00:23:03.010Z,7.20
2019-05-10T00:25:31.360Z,7.20
2019-05-10T00:27:59.802Z,7.20
2019-05-10T00:30:28.436Z,7.20
2019-05-10T00:32:56.751Z,7.20
2019-05-10T00:35:25.329Z,7.20
2019-05-10T00:37:54.635Z,7.20
2019-05-10T00:40:23.334Z,7.20
2019-05-10T00:42:51.998Z,7.30
2019-05-10T00:45:20.856Z,7.30
2019-05-10T00:47:49.284Z,7.30
2019-05-10T00:50:17.713Z,7.30
2019-05-10T00:52:46.448Z,7.20
2019-05-10T00:55:18.783Z,7.30
2019-05-10T00:57:43.516Z,7.30
2019-05-10T01:00:12.464Z,7.30
2019-05-10T01:02:40.771Z,7.30
2019-05-10T01:05:09.127Z,7.20
2019-05-10T01:07:38.718Z,7.20
2019-05-10T01:10:07.105Z,7.20
2019-05-10T01:12:35.425Z,7.20
2019-05-10T01:15:04.599Z,7.10
2019-05-10T01:17:33.442Z,7.10
2019-05-10T01:20:02.336Z,7.10
2019-05-10T01:22:30.975Z,7.00
2019-05-10T01:24:59.257Z,7.00
2019-05-10T01:27:27.574Z,7.00
2019-05-10T01:29:56.720Z,7.00
2019-05-10T01:32:25.145Z,7.00
2019-05-10T01:34:53.736Z,6.90
2019-05-10T01:37:22.617Z,6.90
2019-05-10T01:39:50.958Z,6.90
2019-05-10T01:42:19.532Z,6.90
2019-05-10T01:44:48.527Z,6.80
2019-05-10T01:47:17.513Z,6.80
2019-05-10T01:49:46.479Z,6.70
2019-05-10T01:52:15.961Z,6.70
2019-05-10T01:54:44.741Z,6.70
2019-05-10T01:57:13.136Z,6.60
2019-05-10T01:59:41.740Z,6.60
2019-05-10T02:02:10.345Z,6.60
2019-05-10T02:04:38.903Z,6.60
2019-05-10T02:07:07.502Z,6.50
2019-05-10T02:09:36.290Z,6.50
2019-05-10T02:12:04.630Z,6.50
2019-05-10T02:14:33.355Z,6.60
2019-05-10T02:17:01.732Z,6.60
2019-05-10T02:19:30.179Z,6.60
2019-05-10T02:21:58.795Z,6.60
2019-05-10T02:24:27.176Z,6.60
2019-05-10T02:26:55.583Z,6.60
2019-05-10T02:29:24.073Z,6.50
2019-05-10T02:31:52.472Z,6.50
2019-05-10T02:34:21.253Z,6.50
2019-05-10T02:36:49.856Z,6.50
2019-05-10T02:39:18.290Z,6.60
2019-05-10T02:41:46.662Z,6.60
2019-05-10T02:44:15.736Z,6.60
2019-05-10T02:46:44.083Z,6.60
2019-05-10T02:49:12.458Z,6.70
2019-05-10T02:51:41.173Z,6.70
2019-05-10T02:54:09.517Z,6.70
2019-05-10T02:56:38.225Z,6.70
2019-05-10T02:59:07.233Z,6.70
2019-05-10T03:01:36.320Z,6.70
2019-05-10T03:04:04.760Z,6.70
2019-05-10T03:06:34.355Z,6.70
2019-05-10T03:09:03.292Z,6.80
2019-05-10T03:11:32.023Z,6.80
2019-05-10T03:14:00.896Z,6.90
2019-05-10T03:16:29.301Z,7.00
2019-05-10T03:18:57.712Z,7.10
2019-05-10T03:21:26.476Z,7.20
2019-05-10T03:23:54.859Z,7.20
2019-05-10T03:26:23.664Z,7.30
2019-05-10T03:28:52.678Z,7.40
2019-05-10T03:31:21.609Z,7.40
2019-05-10T03:33:55.838Z,7.50
2019-05-10T03:36:19.185Z,7.50
2019-05-10T03:38:47.561Z,7.60
2019-05-10T03:41:15.977Z,7.70
2019-05-10T03:43:44.650Z,7.70
2019-05-10T03:46:13.777Z,7.80
2019-05-10T03:48:42.195Z,7.80
2019-05-10T03:51:11.140Z,7.90
2019-05-10T03:53:39.443Z,7.90
2019-05-10T03:56:07.765Z,8.00
2019-05-10T03:58:36.890Z,8.00
2019-05-10T04:01:05.574Z,8.10
2019-05-10T04:03:34.125Z,8.30
2019-05-10T04:06:02.796Z,8.30
2019-05-10T04:08:31.329Z,8.30
2019-05-10T04:10:59.669Z,8.30
2019-05-10T04:13:28.176Z,8.40
2019-05-10T04:15:56.764Z,8.60
2019-05-10T04:18:25.357Z,8.70
2019-05-10T04:20:53.972Z,8.80
2019-05-10T04:23:22.490Z,8.90
2019-05-10T04:25:50.883Z,9.00
2019-05-10T04:28:19.880Z,9.10
2019-05-10T04:30:48.279Z,9.20
2019-05-10T04:33:17.259Z,9.30
2019-05-10T04:35:46.092Z,9.30
2019-05-10T04:38:14.460Z,9.40
2019-05-10T04:40:42.974Z,9.50
2019-05-10T04:43:11.859Z,9.60
2019-05-10T04:45:40.201Z,9.60
2019-05-10T04:48:08.873Z,9.60
2019-05-10T04:50:37.734Z,9.70
2019-05-10T04:53:06.121Z,9.70
2019-05-10T04:55:35.916Z,9.80
2019-05-10T04:58:04.709Z,9.90
2019-05-10T05:00:33.343Z,10.00
2019-05-10T05:03:01.797Z,10.10
2019-05-10T05:05:30.302Z,10.20
2019-05-10T05:07:58.694Z,10.40
2019-05-10T05:10:27.208Z,10.50
2019-05-10T05:12:55.895Z,10.70
2019-05-10T05:15:24.240Z,10.80
2019-05-10T05:17:52.673Z,11.00
2019-05-10T05:20:21.525Z,11.20
2019-05-10T05:22:50.294Z,11.30
2019-05-10T05:25:21.916Z,11.60
2019-05-10T05:27:48.003Z,11.70
2019-05-10T05:30:16.381Z,11.80
2019-05-10T05:32:45.826Z,11.90
2019-05-10T05:35:15.515Z,11.90
2019-05-10T05:37:42.435Z,11.90
2019-05-10T05:40:11.069Z,11.90
2019-05-10T05:42:39.790Z,11.90
2019-05-10T05:45:08.429Z,12.10
2019-05-10T05:47:37.499Z,11.90
2019-05-10T05:50:06.083Z,12.00
2019-05-10T05:52:34.468Z,12.10
2019-05-10T05:55:02.861Z,12.20
2019-05-10T05:57:31.480Z,12.30
2019-05-10T06:00:04.046Z,12.50
2019-05-10T06:02:28.635Z,12.80
2019-05-10T06:04:57.224Z,12.90
2019-05-10T06:07:31.122Z,13.00
2019-05-10T06:09:54.688Z,13.00
2019-05-10T06:12:23.270Z,12.90
2019-05-10T06:14:52.418Z,13.00
2019-05-10T06:17:23.763Z,13.00
2019-05-10T06:19:49.155Z,13.10
2019-05-10T06:22:18.162Z,13.20
2019-05-10T06:24:51.770Z,13.20
2019-05-10T06:27:15.516Z,13.20
2019-05-10T06:29:44.173Z,13.30
2019-05-10T06:32:12.491Z,13.30
2019-05-10T06:34:41.265Z,13.40
2019-05-10T06:37:10.242Z,13.50
2019-05-10T06:39:38.939Z,13.40
2019-05-10T06:42:07.887Z,13.50
2019-05-10T06:44:36.655Z,13.60
2019-05-10T06:47:08.168Z,13.70
2019-05-10T06:49:33.987Z,13.80
2019-05-10T06:52:05.313Z,13.60
2019-05-10T06:54:33.734Z,13.60
2019-05-10T06:57:02.506Z,13.70
2019-05-10T06:59:30.920Z,13.60
2019-05-10T07:01:59.294Z,13.70
2019-05-10T07:04:28.099Z,13.70
2019-05-10T07:06:56.432Z,13.60
2019-05-10T07:09:24.757Z,13.80
2019-05-10T07:11:53.552Z,14.00
2019-05-10T07:14:25.605Z,14.20
2019-05-10T07:16:50.594Z,14.60
2019-05-10T07:19:19.354Z,14.80
2019-05-10T07:21:51.096Z,15.00
2019-05-10T07:24:18.141Z,15.00
2019-05-10T07:26:45.121Z,15.00
2019-05-10T07:29:27.915Z,15.40
2019-05-10T07:31:42.104Z,16.10
2019-05-10T07:34:15.562Z,16.60
2019-05-10T07:36:39.150Z,16.70
2019-05-10T07:39:08.287Z,16.70
2019-05-10T07:41:36.676Z,16.80
2019-05-10T07:44:07.944Z,16.70
2019-05-10T07:46:33.407Z,16.80
2019-05-10T07:49:02.432Z,16.90
2019-05-10T07:51:30.965Z,17.00
2019-05-10T07:54:04.463Z,17.00
2019-05-10T07:56:28.479Z,17.00
2019-05-10T07:59:00.292Z,17.00
2019-05-10T08:01:32.327Z,17.00
2019-05-10T08:03:54.069Z,16.90
2019-05-10T08:06:22.966Z,16.90
2019-05-10T08:08:55.372Z,16.80
2019-05-10T08:11:20.179Z,16.80
2019-05-10T08:13:48.702Z,16.60
2019-05-10T08:16:22.731Z,16.80
2019-05-10T08:18:46.332Z,17.10
2019-05-10T08:21:21.893Z,17.60
2019-05-10T08:23:43.854Z,17.70
2019-05-10T08:26:19.841Z,17.80
2019-05-10T08:28:44.444Z,17.80
2019-05-10T08:31:08.947Z,17.80
2019-05-10T08:33:37.837Z,17.80
2019-05-10T08:36:06.511Z,17.70
2019-05-10T08:38:39.689Z,17.80
2019-05-10T08:41:08.081Z,17.90
2019-05-10T08:43:38.988Z,17.90
2019-05-10T08:46:02.655Z,18.00
2019-05-10T08:48:29.634Z,17.90
2019-05-10T08:51:05.645Z,18.00
2019-05-10T08:53:26.318Z,18.20
2019-05-10T08:55:58.349Z,18.50
2019-05-10T08:58:31.363Z,18.70
2019-05-10T09:01:10.650Z,18.90
2019-05-10T09:03:22.582Z,18.80
2019-05-10T09:05:48.918Z,18.70
2019-05-10T09:08:20.006Z,18.60
2019-05-10T09:10:46.109Z,18.90
2019-05-10T09:13:14.615Z,19.00
2019-05-10T09:15:51.333Z,19.10
2019-05-10T09:18:12.844Z,19.50
2019-05-10T09:20:42.131Z,19.80
2019-05-10T09:23:14.255Z,20.30
2019-05-10T09:25:37.947Z,21.00
2019-05-10T09:28:14.094Z,21.60
2019-05-10T09:30:35.717Z,21.90
2019-05-10T09:33:08.591Z,21.90
2019-05-10T09:35:33.047Z,21.80
2019-05-10T09:38:01.959Z,21.20
2019-05-10T09:40:29.719Z,21.10
2019-05-10T09:42:59.375Z,21.10
2019-05-10T09:45:26.924Z,21.50
2019-05-10T09:47:55.779Z,22.00
2019-05-10T09:50:24.271Z,21.60
2019-05-10T09:52:52.802Z,21.30
2019-05-10T09:55:21.648Z,21.20
2019-05-10T09:57:50.193Z,21.30
2019-05-10T10:00:19.604Z,21.10
2019-05-10T10:02:56.549Z,21.10
2019-05-10T10:05:17.900Z,20.90
2019-05-10T10:10:28.574Z,20.60
2019-05-10T10:12:49.168Z,20.60
2019-05-10T10:15:25.235Z,20.60
2019-05-10T10:17:47.732Z,20.70
2019-05-10T10:20:15.578Z,20.80
2019-05-10T10:22:49.640Z,20.90
2019-05-10T10:25:14.056Z,21.00
2019-05-10T10:27:42.652Z,20.60
2019-05-10T10:30:17.827Z,20.40
2019-05-10T10:32:39.780Z,20.30
2019-05-10T10:35:08.272Z,20.40
2019-05-10T10:37:37.959Z,20.60
2019-05-10T10:40:08.531Z,21.10
2019-05-10T10:42:34.204Z,20.90
2019-05-10T10:45:02.535Z,20.70
2019-05-10T10:47:32.952Z,21.10
2019-05-10T10:50:03.123Z,21.00
2019-05-10T10:52:29.695Z,21.10
2019-05-10T10:54:58.700Z,21.30
2019-05-10T10:57:27.942Z,20.70
2019-05-10T10:59:57.486Z,20.30
2019-05-10T11:02:32.718Z,19.90
2019-05-10T11:04:52.655Z,19.60
2019-05-10T11:07:21.068Z,19.60
2019-05-10T11:09:53.722Z,20.10
2019-05-10T11:12:22.568Z,20.20
2019-05-10T11:14:46.779Z,19.90
2019-05-10T11:17:15.632Z,19.50
2019-05-10T11:19:43.956Z,19.60
2019-05-10T11:22:12.360Z,19.40
2019-05-10T11:24:41.383Z,19.20
2019-05-10T11:27:13.126Z,18.80
2019-05-10T11:29:38.318Z,18.20
2019-05-10T11:32:15.751Z,17.90
2019-05-10T11:34:37.734Z,17.70
2019-05-10T11:37:04.139Z,17.50
2019-05-10T11:39:40.664Z,17.50
2019-05-10T11:42:06.925Z,17.40
2019-05-10T11:44:31.659Z,17.50
2019-05-10T11:47:01.338Z,17.80
2019-05-10T11:49:27.413Z,17.70
2019-05-10T11:51:58.678Z,17.90
2019-05-10T11:54:24.456Z,17.80
2019-05-10T11:56:58.591Z,17.90
2019-05-10T11:59:21.915Z,17.80
2019-05-10T12:01:57.959Z,17.90
2019-05-10T12:04:24.101Z,18.10
2019-05-10T12:06:51.502Z,18.50
2019-05-10T12:09:16.171Z,18.50
2019-05-10T12:11:51.682Z,18.60
2019-05-10T12:14:13.929Z,18.70
2019-05-10T12:16:42.280Z,18.80
2019-05-10T12:19:19.776Z,18.80
2019-05-10T12:21:39.476Z,18.60
2019-05-10T12:24:26.068Z,18.60
2019-05-10T12:29:11.818Z,18.40
2019-05-10T12:31:33.793Z,18.40
2019-05-10T12:34:09.161Z,17.90
2019-05-10T12:36:31.449Z,17.40
2019-05-10T12:39:01.728Z,17.30
2019-05-10T12:41:28.764Z,17.30
2019-05-10T12:44:03.317Z,17.10
2019-05-10T12:46:25.799Z,17.00
2019-05-10T12:48:54.670Z,16.90
2019-05-10T12:51:23.032Z,16.90
2019-05-10T12:53:52.185Z,16.80
2019-05-10T12:56:20.608Z,16.70
2019-05-10T12:58:56.790Z,16.80
2019-05-10T13:01:17.655Z,16.80
2019-05-10T13:03:46.492Z,16.80
2019-05-10T13:06:15.172Z,16.80
2019-05-10T13:08:43.483Z,16.70
2019-05-10T13:11:12.368Z,16.80
2019-05-10T13:13:40.793Z,16.80
2019-05-10T13:16:11.764Z,16.90
2019-05-10T13:18:53.209Z,17.00
2019-05-10T13:21:07.851Z,16.70
2019-05-10T13:23:35.102Z,16.60
2019-05-10T13:26:03.864Z,16.60
2019-05-10T13:28:32.176Z,16.50
2019-05-10T13:31:05.678Z,16.60
2019-05-10T13:33:34.784Z,16.70
2019-05-10T13:35:58.543Z,16.60
2019-05-10T13:38:26.284Z,16.70
2019-05-10T13:40:55.051Z,16.80
2019-05-10T13:43:26.483Z,16.90
2019-05-10T13:45:52.400Z,16.70
2019-05-10T13:48:25.783Z,16.30
2019-05-10T13:50:50.112Z,16.30
2019-05-10T13:53:20.918Z,16.10
2019-05-10T13:55:47.472Z,15.80
2019-05-10T13:58:16.201Z,15.70
2019-05-10T14:00:44.899Z,15.60
2019-05-10T14:03:13.827Z,15.50
2019-05-10T14:05:42.486Z,15.30
2019-05-10T14:08:11.194Z,15.30
2019-05-10T14:10:39.887Z,15.20
2019-05-10T14:13:08.412Z,15.10
2019-05-10T14:15:36.827Z,15.10
2019-05-10T14:18:05.628Z,15.00
2019-05-10T14:20:34.226Z,14.70
2019-05-10T14:23:02.593Z,14.70
2019-05-10T14:25:36.264Z,14.70
2019-05-10T14:27:59.819Z,14.60
2019-05-10T14:30:28.174Z,14.50
2019-05-10T14:32:56.675Z,14.40
2019-05-10T14:35:25.082Z,14.30
2019-05-10T14:37:53.896Z,14.20
2019-05-10T14:40:27.966Z,14.10
2019-05-10T14:42:50.930Z,14.10
2019-05-10T14:45:19.333Z,13.90
2019-05-10T14:47:50.415Z,13.90
2019-05-10T14:50:19.343Z,13.90
2019-05-10T14:52:45.091Z,13.70
2019-05-10T14:55:13.589Z,13.60
2019-05-10T14:57:42.004Z,13.60
2019-05-10T15:00:10.479Z,13.60
2019-05-10T15:02:39.044Z,13.70
2019-05-10T15:05:15.096Z,13.70
2019-05-10T15:07:35.932Z,13.70
2019-05-10T15:10:04.936Z,13.70
2019-05-10T15:12:33.314Z,13.60
2019-05-10T15:15:01.871Z,13.50
2019-05-10T15:17:30.688Z,13.50
2019-05-10T15:20:00.066Z,13.60
2019-05-10T15:22:27.630Z,13.60
2019-05-10T15:24:56.595Z,13.50
2019-05-10T15:27:24.994Z,13.30
2019-05-10T15:29:58.749Z,13.20
2019-05-10T15:32:22.377Z,13.20
2019-05-10T15:35:05.243Z,13.20
2019-05-10T15:37:19.233Z,13.20
2019-05-10T15:39:47.911Z,13.20
2019-05-10T15:42:16.612Z,13.20
2019-05-10T15:44:45.044Z,13.30
2019-05-10T15:47:20.483Z,13.30
2019-05-10T15:49:42.355Z,13.30
2019-05-10T15:52:17.574Z,13.30
2019-05-10T15:54:44.498Z,13.30
2019-05-10T15:57:08.337Z,13.20
2019-05-10T15:59:36.924Z,13.40
2019-05-10T16:02:06.087Z,13.40
2019-05-10T16:04:34.401Z,13.40
2019-05-10T16:07:02.806Z,13.40
2019-05-10T16:09:31.211Z,13.60
2019-05-10T16:12:01.880Z,13.80
2019-05-10T16:14:33.204Z,14.00
2019-05-10T16:16:56.979Z,14.10
2019-05-10T16:19:25.619Z,14.30
2019-05-10T16:21:54.657Z,14.30
2019-05-10T16:24:26.155Z,14.20
2019-05-10T16:26:54.761Z,14.10
2019-05-10T16:29:19.788Z,14.00
2019-05-10T16:31:48.782Z,13.80
2019-05-10T16:34:17.295Z,13.70
2019-05-10T16:36:45.597Z,13.70
2019-05-10T16:39:14.212Z,13.70
2019-05-10T16:41:42.874Z,13.80
2019-05-10T16:44:11.279Z,13.80
2019-05-10T16:46:39.822Z,13.70
2019-05-10T16:49:10.186Z,13.70
2019-05-10T16:51:36.938Z,13.80
2019-05-10T16:54:05.560Z,13.70
2019-05-10T16:56:34.090Z,13.60
2019-05-10T16:59:02.397Z,13.60
2019-05-10T17:01:33.545Z,13.60
2019-05-10T17:04:01.630Z,13.60
2019-05-10T17:06:28.260Z,13.60
2019-05-10T17:08:57.198Z,13.50
2019-05-10T17:11:25.573Z,13.50
2019-05-10T17:13:55.692Z,13.50
2019-05-10T17:16:22.944Z,13.50
2019-05-10T17:18:55.409Z,13.50
2019-05-10T17:21:20.178Z,13.60
2019-05-10T17:23:49.306Z,13.60
2019-05-10T17:26:17.632Z,13.70
2019-05-10T17:28:46.006Z,13.60
2019-05-10T17:31:14.601Z,13.70
2019-05-10T17:33:44.338Z,13.50
2019-05-10T17:36:14.670Z,13.50
2019-05-10T17:38:40.804Z,13.30
2019-05-10T17:41:09.476Z,13.20
2019-05-10T17:43:38.118Z,13.20
2019-05-10T17:46:06.862Z,13.20
2019-05-10T17:48:35.272Z,13.20
2019-05-10T17:51:03.637Z,13.10
2019-05-10T17:53:32.693Z,13.10
2019-05-10T17:56:02.853Z,13.10
2019-05-10T17:58:34.029Z,13.00
2019-05-10T18:00:58.351Z,12.80
2019-05-10T18:03:27.038Z,12.60
2019-05-10T18:05:55.367Z,12.60
2019-05-10T18:08:23.950Z,12.50
2019-05-10T18:10:57.333Z,12.40
2019-05-10T18:13:21.160Z,12.30
2019-05-10T18:15:49.699Z,12.20
2019-05-10T18:18:18.071Z,12.10
2019-05-10T18:20:46.399Z,12.10
2019-05-10T18:23:20.909Z,12.00
2019-05-10T18:25:43.577Z,11.90
2019-05-10T18:28:11.919Z,11.70
2019-05-10T18:30:40.731Z,11.50
2019-05-10T18:33:12.524Z,11.40
2019-05-10T18:35:38.011Z,11.30
2019-05-10T18:38:06.754Z,11.20
2019-05-10T18:40:35.102Z,11.10
2019-05-10T18:43:04.479Z,11.00
2019-05-10T18:45:32.352Z,10.90
2019-05-10T18:48:00.796Z,10.80
2019-05-10T18:50:29.170Z,10.80
2019-05-10T18:52:58.132Z,10.70
2019-05-10T18:55:26.956Z,10.60
2019-05-10T18:57:55.647Z,10.60
2019-05-10T19:00:25.380Z,10.50
2019-05-10T19:02:55.144Z,10.50
2019-05-10T19:05:25.178Z,10.40
2019-05-10T19:08:02.701Z,10.30
2019-05-10T19:10:19.682Z,10.20
2019-05-10T19:13:00.081Z,10.20
2019-05-10T19:15:17.236Z,10.10
2019-05-10T19:17:47.035Z,10.10
2019-05-10T19:20:16.487Z,10.00
2019-05-10T19:22:43.370Z,9.90
2019-05-10T19:25:14.286Z,9.90
2019-05-10T19:27:44.164Z,9.80
2019-05-10T19:30:09.157Z,9.70
2019-05-10T19:32:37.485Z,9.60
2019-05-10T19:35:05.870Z,9.60
2019-05-10T19:37:34.781Z,9.50
2019-05-10T19:40:03.630Z,9.40
2019-05-10T19:42:36.761Z,9.40
2019-05-10T19:45:00.965Z,9.40
2019-05-10T19:47:29.328Z,9.40
2019-05-10T19:49:58.275Z,9.30
2019-05-10T19:52:27.837Z,9.20
2019-05-10T19:54:55.287Z,9.10
2019-05-10T19:57:23.633Z,9.00
2019-05-10T19:59:52.457Z,8.90
2019-05-10T20:02:21.502Z,8.80
2019-05-10T20:04:49.813Z,8.60
2019-05-10T20:07:18.371Z,8.50
2019-05-10T20:09:46.826Z,8.40
2019-05-10T20:12:15.434Z,8.40
2019-05-10T20:14:44.257Z,8.30
2019-05-10T20:17:12.754Z,8.20
2019-05-10T20:19:41.150Z,8.30
2019-05-10T20:22:09.725Z,8.20
2019-05-10T20:24:39.101Z,8.10
2019-05-10T20:27:07.433Z,8.10
2019-05-10T20:29:36.224Z,8.20
2019-05-10T20:32:04.706Z,8.20
2019-05-10T20:34:33.362Z,8.20
2019-05-10T20:37:02.114Z,8.10
2019-05-10T20:39:30.981Z,8.00
2019-05-10T20:41:59.349Z,8.00
2019-05-10T20:44:28.028Z,7.90
2019-05-10T20:46:56.418Z,8.00
2019-05-10T20:49:24.803Z,8.00
2019-05-10T20:51:53.607Z,7.90
2019-05-10T20:54:22.210Z,7.90
2019-05-10T20:56:50.728Z,7.90
2019-05-10T20:59:19.662Z,7.90
2019-05-10T21:01:48.031Z,7.90
2019-05-10T21:04:16.816Z,7.80
2019-05-10T21:06:45.716Z,7.80
2019-05-10T21:09:14.255Z,7.80
2019-05-10T21:11:42.857Z,7.80
2019-05-10T21:14:11.770Z,7.70
2019-05-10T21:16:40.092Z,7.60
2019-05-10T21:19:08.416Z,7.60
2019-05-10T21:21:37.208Z,7.60
2019-05-10T21:24:05.589Z,7.60
2019-05-10T21:26:34.028Z,7.50
2019-05-10T21:29:03.263Z,7.50
2019-05-10T21:31:31.624Z,7.40
2019-05-10T21:34:09.154Z,7.40
2019-05-10T21:36:29.629Z,7.30
2019-05-10T21:38:57.951Z,7.30
2019-05-10T21:41:26.584Z,7.20
2019-05-10T21:43:55.372Z,7.20
2019-05-10T21:46:23.744Z,7.20
2019-05-10T21:48:52.273Z,7.10
2019-05-10T21:51:20.745Z,7.10
2019-05-10T21:53:49.115Z,7.10
2019-05-10T21:56:17.491Z,7.00
2019-05-10T21:58:46.321Z,7.00
2019-05-10T22:01:14.676Z,7.00
2019-05-10T22:03:43.113Z,7.10
2019-05-10T22:06:12.004Z,7.10
2019-05-10T22:08:49.060Z,7.30
2019-05-10T22:11:08.820Z,7.30
2019-05-10T22:13:37.913Z,7.40
2019-05-10T22:16:06.585Z,7.40
2019-05-10T22:18:35.299Z,7.50
2019-05-10T22:21:04.261Z,7.50
2019-05-10T22:23:32.657Z,7.50
2019-05-10T22:26:01.039Z,7.40
2019-05-10T22:28:29.855Z,7.40
2019-05-10T22:30:58.235Z,7.20
2019-05-10T22:33:26.774Z,7.20
2019-05-10T22:35:55.603Z,7.10
2019-05-10T22:38:24.215Z,7.10
2019-05-10T22:40:52.646Z,7.10
2019-05-10T22:43:21.206Z,7.10
2019-05-10T22:45:49.801Z,7.10
2019-05-10T22:48:18.194Z,7.10
2019-05-10T22:50:46.731Z,7.10
2019-05-10T22:53:15.237Z,7.00
2019-05-10T22:55:43.586Z,6.90
2019-05-10T22:58:12.396Z,6.80
2019-05-10T23:00:40.822Z,6.80
2019-05-10T23:03:09.602Z,6.80
2019-05-10T23:05:38.191Z,6.80
2019-05-10T23:08:06.757Z,6.80
2019-05-10T23:10:35.294Z,6.90
2019-05-10T23:13:03.893Z,6.90
2019-05-10T23:15:32.514Z,6.90
2019-05-10T23:18:01.014Z,6.80
2019-05-10T23:20:29.631Z,6.80
2019-05-10T23:22:58.415Z,6.80
2019-05-10T23:25:26.779Z,6.70
2019-05-10T23:27:55.690Z,6.60
2019-05-10T23:30:24.182Z,6.50
2019-05-10T23:32:52.620Z,6.50
2019-05-10T23:35:21.292Z,6.40
2019-05-10T23:37:49.660Z,6.40
2019-05-10T23:40:18.057Z,6.40
2019-05-10T23:42:46.711Z,6.40
2019-05-10T23:45:15.703Z,6.30
2019-05-10T23:47:44.102Z,6.20
2019-05-10T23:50:13.074Z,6.20
2019-05-10T23:52:41.656Z,6.20
2019-05-10T23:55:10.063Z,6.30
2019-05-10T23:57:38.821Z,6.20
